Ramore, Canada
Current Conditions -  °F | °C
As of 9:42 AM on Friday 28 Nov 2014 (Local Time) from CYTS Reporting Station
Few Clouds Few Clouds  
Wind Chill: -25°   Ceiling: Unl
Heat Index: -25°   Visibility: 15mi
Dew Point: -27°   Wind: 2mph
Humidity: 84%   Direction: NA
Pressure: 30.17"   Gusts: NA
Location:  48.42°N, 80.32°W
Report Text: CYTS 281442Z VRB02KT 15SM FEW200 M25/M27 A3017 RMK CI2 SLP251
Loading
Personal Weather Stations






























Interactive Weather Map New forecast layout! Learn more

10-Day Weather Forecast

Advertisements
Track Severe Weather on mobile